This is the latest recevied weather packets stored in our database for station/object DB0ADS-6. If no packets are shown the sender has not sent any weather packets the latest 1 day(s).
| Time | Temp. | Humidity | Pressure | Rain* | Wind** | Luminosity | Snow |
|---|---|---|---|---|---|---|---|
| 1777985743 | 21.11° C | 52% | 1004.6 hPa | 0 mm | 1.34 m/s, 342° | - | - |
| 1777985441 | 21.11° C | 52% | 1004.6 hPa | 0 mm | 1.34 m/s, 358° | - | - |
| 1777985139 | 21.67° C | 51% | 1004.7 hPa | 0 mm | 1.79 m/s, 38° | - | - |
| 1777984837 | 21.11° C | 52% | 1004.7 hPa | 0 mm | 1.34 m/s, 340° | - | - |
| 1777984535 | 20.56° C | 54% | 1004.8 hPa | 0 mm | 1.79 m/s, 313° | - | - |
| 1777984233 | 20.56° C | 53% | 1004.9 hPa | 0 mm | 2.24 m/s, 308° | - | - |
| 1777983931 | 21.11° C | 53% | 1004.9 hPa | 0 mm | 2.68 m/s, 306° | - | - |
| 1777983630 | 20.56° C | 52% | 1004.9 hPa | 0 mm | 1.79 m/s, 299° | - | - |
| 1777983328 | 21.11° C | 54% | 1004.9 hPa | 0 mm | 2.68 m/s, 343° | - | - |
| 1777983025 | 21.11° C | 52% | 1004.9 hPa | 0 mm | 1.34 m/s, 335° | - | - |
| 1777982727 | 22.22° C | 50% | 1005 hPa | 0 mm | 1.79 m/s, 315° | - | - |
| 1777982422 | 21.67° C | 50% | 1005 hPa | 0 mm | 1.34 m/s, 328° | - | - |
| 1777982120 | 21.67° C | 50% | 1005.1 hPa | 0 mm | 2.24 m/s, 305° | - | - |
| 1777981819 | 21.11° C | 50% | 1005.1 hPa | 0 mm | 1.34 m/s, 330° | - | - |
| 1777981517 | 20.56° C | 49% | 1005.2 hPa | 0 mm | 0.89 m/s, 323° | - | - |
| 1777981216 | 20.56° C | 49% | 1005.3 hPa | 0 mm | 0.89 m/s, 349° | - | - |
| 1777980973 | 20° C | 50% | 1005.3 hPa | 0 mm | 0.89 m/s, 16° | - | - |
| 1777980672 | 20.56° C | 50% | 1005.3 hPa | 0 mm | 0.89 m/s, 29° | - | - |
| 1777980370 | 20.56° C | 48% | 1005.4 hPa | 0 mm | 0.89 m/s, 23° | - | - |
| 1777980068 | 20.56° C | 48% | 1005.4 hPa | 0 mm | 0.89 m/s, 4° | - | - |
| 1777979767 | 20° C | 49% | 1005.4 hPa | 0 mm | 0.89 m/s, 38° | - | - |
| 1777979465 | 20.56° C | 49% | 1005.5 hPa | 0 mm | 1.79 m/s, 35° | - | - |
| 1777979183 | 20.56° C | 49% | 1005.6 hPa | 0 mm | 1.34 m/s, 347° | - | - |
| 1777978861 | 20.56° C | 50% | 1005.5 hPa | 0 mm | 1.34 m/s, 336° | - | - |
| 1777978559 | 20.56° C | 49% | 1005.6 hPa | 0 mm | 0.89 m/s, 12° | - | - |
* Rain latest hour (hover to see other rain measurements)
** Current wind speed in m/s (hover to see current wind gust speed)